TimeEST,TemperatureF,Dew PointF,Humidity,Sea Level PressureIn,VisibilityMPH,Wind Direction,Wind SpeedMPH,Gust SpeedMPH,PrecipitationIn,Events,Conditions,WindDirDegrees,DateUTC
12:30 AM,44.6,37.4,76,30.16,10.0,North,16.1,25.3,N/A,,Scattered Clouds,10,2013-01-18 05:30:00
12:42 AM,44.6,37.4,76,30.17,10.0,North,12.7,23.0,N/A,,Mostly Cloudy,10,2013-01-18 05:42:00
12:53 AM,45.0,37.9,76,30.18,10.0,North,12.7,17.3,N/A,,Mostly Cloudy,350,2013-01-18 05:53:00
1:25 AM,42.8,37.4,81,30.21,10.0,North,10.4,19.6,N/A,,Scattered Clouds,10,2013-01-18 06:25:00
1:53 AM,43.0,37.0,80,30.24,10.0,North,12.7,-,N/A,,Mostly Cloudy,10,2013-01-18 06:53:00
2:12 AM,42.8,35.6,76,30.24,10.0,NNE,16.1,23.0,N/A,,Scattered Clouds,20,2013-01-18 07:12:00
2:53 AM,42.1,36.0,79,30.27,10.0,NNE,11.5,19.6,N/A,,Clear,20,2013-01-18 07:53:00
3:53 AM,41.0,35.1,79,30.28,10.0,NNE,10.4,-,N/A,,Clear,20,2013-01-18 08:53:00
4:53 AM,39.0,35.1,86,30.31,10.0,North,5.8,-,N/A,,Partly Cloudy,10,2013-01-18 09:53:00
5:53 AM,37.9,34.0,86,30.33,10.0,North,3.5,-,N/A,,Clear,10,2013-01-18 10:53:00
6:53 AM,37.0,34.0,89,30.37,10.0,Calm,Calm,-,N/A,,Clear,0,2013-01-18 11:53:00
7:53 AM,37.0,34.0,89,30.40,10.0,North,4.6,-,N/A,,Clear,350,2013-01-18 12:53:00
8:53 AM,41.0,34.0,76,30.44,10.0,NNE,8.1,-,N/A,,Clear,20,2013-01-18 13:53:00
9:53 AM,44.1,30.9,60,30.49,10.0,NE,9.2,17.3,N/A,,Clear,40,2013-01-18 14:53:00
10:53 AM,46.9,27.0,46,30.50,10.0,NNE,12.7,-,N/A,,Clear,20,2013-01-18 15:53:00
11:53 AM,50.0,23.0,35,30.48,10.0,NE,16.1,23.0,N/A,,Clear,40,2013-01-18 16:53:00
12:53 PM,52.0,19.0,27,30.45,10.0,NE,17.3,27.6,N/A,,Clear,40,2013-01-18 17:53:00
1:53 PM,54.0,21.0,28,30.44,10.0,NNE,11.5,19.6,N/A,,Clear,30,2013-01-18 18:53:00
2:53 PM,55.0,19.9,25,30.44,10.0,NNE,11.5,-,N/A,,Clear,30,2013-01-18 19:53:00
3:53 PM,55.0,19.9,25,30.45,10.0,NNE,6.9,-,N/A,,Clear,20,2013-01-18 20:53:00
4:53 PM,53.1,21.0,29,30.47,10.0,North,8.1,-,N/A,,Clear,10,2013-01-18 21:53:00
5:53 PM,48.0,21.9,36,30.48,10.0,NNE,4.6,-,N/A,,Clear,30,2013-01-18 22:53:00
6:53 PM,45.0,25.0,46,30.50,10.0,NE,3.5,-,N/A,,Clear,50,2013-01-18 23:53:00
7:53 PM,43.0,26.1,51,30.51,10.0,NE,4.6,-,N/A,,Clear,50,2013-01-19 00:53:00
8:53 PM,42.1,26.1,53,30.50,10.0,NE,4.6,-,N/A,,Clear,50,2013-01-19 01:53:00
9:53 PM,41.0,26.1,55,30.50,10.0,NE,4.6,-,N/A,,Clear,50,2013-01-19 02:53:00
10:53 PM,37.9,26.1,62,30.51,10.0,Calm,Calm,-,N/A,,Clear,0,2013-01-19 03:53:00
11:53 PM,36.0,27.0,70,30.51,10.0,NE,3.5,-,N/A,,Clear,40,2013-01-19 04:53:00